Terminal Aerodrome Forecast
Issued by NWS Mt. Holly, NJ

Home | Current Version | Previous Version | Text Only | Print | Product List | Glossary On
Versions: 1 2 3 4 5 6 7 8 9 10 11 12 13 14 15 16 17 18 19 20 21 22 23 24 25
850
FTUS41 KPHI 300524
TAFTTN
TAF
KTTN 300524Z 3006/0106 VRB04KT P6SM OVC015
      TEMPO 3006/3010 SCT015 OVC025
     FM301200 06006KT P6SM OVC035
     FM301800 13007KT P6SM BKN060=

USA.gov is the U.S. government's official web portal to all federal, state and local government web resources and services.